Time;durP1;ratioP1;P1;durP2;ratioP2;P2;SDS_P1;SDS_P2;PMS_P1;PMS_P2;Temp;Humidity;BMP_temperature;BMP_pressure;BME280_temperature;BME280_humidity;BME280_pressure;Samples;Min_cycle;Max_cycle;Signal;HPM_P1;HPM_P2
2023/06/25 00:00:08;;;;;;;14.57;10.37;;;25.40;57.90;;;;;;5050780;28;20462;-80
2023/06/25 00:02:38;;;;;;;14.60;10.80;;;25.30;58.30;;;;;;5062630;28;20504;-80
2023/06/25 00:05:07;;;;;;;13.80;10.17;;;25.20;58.40;;;;;;5062458;28;20449;-80
2023/06/25 00:07:36;;;;;;;17.50;9.50;;;25.30;58.30;;;;;;5072306;28;20480;-79
2023/06/25 00:10:05;;;;;;;12.10;10.03;;;25.10;58.70;;;;;;5055842;28;20476;-79
2023/06/25 00:12:33;;;;;;;14.23;11.83;;;25.10;58.80;;;;;;5052302;28;20464;-80
2023/06/25 00:15:03;;;;;;;23.10;17.90;;;25.10;59.10;;;;;;5054474;28;21015;-80
2023/06/25 00:17:31;;;;;;;60.73;41.73;;;25.00;59.00;;;;;;5046751;28;20459;-80
2023/06/25 00:19:59;;;;;;;52.60;38.13;;;25.00;59.40;;;;;;5052867;28;20416;-79
2023/06/25 00:22:27;;;;;;;49.43;35.83;;;25.00;59.20;;;;;;5048600;28;20505;-79
2023/06/25 00:24:56;;;;;;;33.13;25.10;;;25.10;59.30;;;;;;5057693;28;20445;-79
2023/06/25 00:27:24;;;;;;;37.07;25.80;;;25.00;59.60;;;;;;5046754;28;20443;-80
2023/06/25 00:29:52;;;;;;;36.10;27.00;;;24.90;59.90;;;;;;5060231;28;20444;-79
2023/06/25 00:32:24;;;;;;;41.23;29.47;;;24.80;60.20;;;;;;5062899;28;20451;-80
2023/06/25 00:34:57;;;;;;;41.70;29.80;;;24.90;60.10;;;;;;5070631;28;20471;-80
2023/06/25 00:37:25;;;;;;;39.60;29.20;;;24.90;60.30;;;;;;5058656;28;20452;-80
2023/06/25 00:39:53;;;;;;;42.57;30.03;;;24.70;60.90;;;;;;5070119;28;20435;-80
2023/06/25 00:42:21;;;;;;;36.23;24.83;;;24.80;60.80;;;;;;5063023;28;20438;-80
2023/06/25 00:44:52;;;;;;;38.77;27.73;;;24.60;61.40;;;;;;5070026;28;20429;-80
2023/06/25 00:47:22;;;;;;;32.13;22.30;;;24.60;61.60;;;;;;5071571;28;20472;-80
2023/06/25 00:49:51;;;;;;;35.40;26.20;;;24.60;61.70;;;;;;5052639;28;20406;-80
2023/06/25 00:52:19;;;;;;;40.20;26.00;;;24.70;61.70;;;;;;5045746;28;20482;-79
2023/06/25 00:54:46;;;;;;;37.97;27.27;;;24.60;61.70;;;;;;5052581;28;20468;-79
2023/06/25 00:57:15;;;;;;;37.97;26.83;;;24.70;61.80;;;;;;5060043;28;20443;-79
2023/06/25 00:59:44;;;;;;;29.73;19.87;;;24.80;62.10;;;;;;5068344;28;20452;-80
2023/06/25 01:02:15;;;;;;;32.57;20.97;;;24.70;62.40;;;;;;5061119;28;20831;-79
2023/06/25 01:04:47;;;;;;;27.00;18.93;;;24.70;62.50;;;;;;5076199;28;20981;-79
2023/06/25 01:07:17;;;;;;;23.20;17.30;;;24.80;62.30;;;;;;5061892;28;20442;-79
2023/06/25 01:09:47;;;;;;;21.03;15.13;;;24.70;62.60;;;;;;5064345;28;20511;-79
2023/06/25 01:12:15;;;;;;;28.33;18.20;;;24.70;62.50;;;;;;5059295;28;20509;-79
2023/06/25 01:14:44;;;;;;;23.73;17.70;;;24.70;62.40;;;;;;5060506;28;20469;-79
2023/06/25 01:17:12;;;;;;;26.03;19.63;;;24.50;62.60;;;;;;5060845;28;20500;-79
2023/06/25 01:19:40;;;;;;;24.53;18.47;;;24.50;63.00;;;;;;5056124;28;20471;-80
2023/06/25 01:22:10;;;;;;;25.17;17.67;;;24.50;63.10;;;;;;5041189;28;20448;-80
2023/06/25 01:24:42;;;;;;;24.40;15.13;;;24.50;63.10;;;;;;5057689;28;20510;-80
2023/06/25 01:27:10;;;;;;;22.57;16.17;;;24.50;63.00;;;;;;5054770;28;20455;-80
2023/06/25 01:29:39;;;;;;;27.33;16.07;;;24.40;63.20;;;;;;5054616;28;20470;-80
2023/06/25 01:32:08;;;;;;;24.53;17.47;;;24.30;63.50;;;;;;5058069;28;20497;-80
2023/06/25 01:34:37;;;;;;;26.87;19.23;;;24.30;64.00;;;;;;5057765;28;21033;-80
2023/06/25 01:37:06;;;;;;;28.80;19.70;;;24.40;64.20;;;;;;5058410;28;20425;-79
2023/06/25 01:39:35;;;;;;;33.80;20.50;;;24.40;63.90;;;;;;5050465;28;20903;-79
2023/06/25 01:42:04;;;;;;;29.27;18.80;;;24.50;64.00;;;;;;5057682;28;20504;-79
2023/06/25 01:44:33;;;;;;;24.17;17.20;;;24.50;64.00;;;;;;5046351;28;20573;-79
2023/06/25 01:47:01;;;;;;;24.30;18.10;;;24.50;64.30;;;;;;5071558;28;20493;-79
2023/06/25 01:49:28;;;;;;;27.57;17.03;;;24.50;64.20;;;;;;5059214;28;20432;-79
2023/06/25 01:51:59;;;;;;;22.07;16.07;;;24.30;64.60;;;;;;5060128;28;20473;-79
2023/06/25 01:54:28;;;;;;;24.63;17.40;;;24.10;64.90;;;;;;5046209;28;20433;-79
2023/06/25 01:56:56;;;;;;;25.20;16.47;;;24.30;65.20;;;;;;5058364;28;20443;-79
2023/06/25 01:59:27;;;;;;;26.43;17.77;;;24.30;65.20;;;;;;5054559;28;20474;-80
2023/06/25 02:01:55;;;;;;;35.57;24.40;;;24.20;65.30;;;;;;5044510;28;20506;-79
2023/06/25 02:04:23;;;;;;;36.70;24.30;;;24.10;65.80;;;;;;5047254;28;20513;-79
2023/06/25 02:06:51;;;;;;;33.23;20.83;;;23.80;66.80;;;;;;5047119;28;20422;-79
2023/06/25 02:09:19;;;;;;;28.43;19.93;;;23.70;67.70;;;;;;5051278;28;20968;-80
2023/06/25 02:11:47;;;;;;;27.70;18.50;;;23.80;68.00;;;;;;5047467;28;20528;-79
2023/06/25 02:14:15;;;;;;;31.97;20.93;;;23.90;67.90;;;;;;5062460;28;20493;-79
2023/06/25 02:16:45;;;;;;;29.13;20.17;;;24.00;67.80;;;;;;5053026;28;20429;-79
2023/06/25 02:19:13;;;;;;;29.67;20.60;;;23.90;67.90;;;;;;5059126;28;20431;-80
2023/06/25 02:21:41;;;;;;;29.27;20.37;;;24.00;68.30;;;;;;5051546;28;20513;-80
2023/06/25 02:24:09;;;;;;;29.73;20.33;;;23.80;68.50;;;;;;5057085;28;20501;-80
2023/06/25 02:26:39;;;;;;;29.40;20.03;;;23.70;68.60;;;;;;5059798;28;20478;-80
2023/06/25 02:29:08;;;;;;;34.60;20.33;;;23.90;68.70;;;;;;5070535;28;20444;-80
2023/06/25 02:31:36;;;;;;;31.97;21.20;;;23.90;68.30;;;;;;5060600;28;20481;-80
2023/06/25 02:34:05;;;;;;;33.40;21.17;;;23.90;68.80;;;;;;5052794;28;20457;-81
2023/06/25 02:36:33;;;;;;;31.00;20.33;;;23.90;69.00;;;;;;5060290;28;20543;-80
2023/06/25 02:39:02;;;;;;;37.30;23.17;;;24.00;69.50;;;;;;5063527;28;20429;-80
2023/06/25 02:41:30;;;;;;;32.30;21.70;;;24.00;69.00;;;;;;5064246;28;20462;-80
2023/06/25 02:43:58;;;;;;;33.63;21.67;;;24.00;69.90;;;;;;5061826;28;20441;-78
2023/06/25 02:46:27;;;;;;;36.20;22.33;;;24.00;69.60;;;;;;5063374;28;20449;-82
2023/06/25 02:48:55;;;;;;;33.10;21.53;;;24.00;69.40;;;;;;5071445;28;20473;-80
2023/06/25 02:51:25;;;;;;;32.40;20.10;;;23.90;69.50;;;;;;5072039;28;20444;-80
2023/06/25 02:53:53;;;;;;;29.90;19.63;;;23.90;69.70;;;;;;5072112;28;20448;-80
2023/06/25 02:56:21;;;;;;;31.27;20.10;;;23.90;69.70;;;;;;5058649;28;20425;-80
2023/06/25 02:58:50;;;;;;;37.77;24.30;;;23.90;70.20;;;;;;5064885;28;20470;-80
2023/06/25 03:01:18;;;;;;;32.27;21.80;;;24.00;70.30;;;;;;5065644;28;20453;-81
2023/06/25 03:03:47;;;;;;;37.97;23.33;;;23.90;70.60;;;;;;5067245;28;20425;-80
2023/06/25 03:06:14;;;;;;;40.00;24.77;;;23.90;70.20;;;;;;5070735;28;20469;-80
2023/06/25 03:08:44;;;;;;;48.77;29.10;;;23.90;70.80;;;;;;5069688;28;20536;-80
2023/06/25 03:11:11;;;;;;;51.47;30.83;;;23.90;71.70;;;;;;5060715;28;20451;-79
2023/06/25 03:13:39;;;;;;;52.03;32.10;;;23.90;71.60;;;;;;5054908;28;20469;-80
2023/06/25 03:16:07;;;;;;;49.50;29.90;;;24.00;71.70;;;;;;5059194;28;20420;-80
2023/06/25 03:18:35;;;;;;;60.73;34.20;;;24.00;71.90;;;;;;5060665;28;20466;-80
2023/06/25 03:21:03;;;;;;;64.43;34.50;;;23.90;72.40;;;;;;5071982;28;20509;-80
2023/06/25 03:23:32;;;;;;;63.67;36.23;;;23.80;73.70;;;;;;5064239;28;20444;-80
2023/06/25 03:26:02;;;;;;;54.90;33.40;;;23.90;73.60;;;;;;5059695;28;20438;-80
2023/06/25 03:28:29;;;;;;;61.07;34.93;;;23.70;74.10;;;;;;5069301;28;20467;-79
2023/06/25 03:30:57;;;;;;;55.97;34.00;;;23.70;74.80;;;;;;5052350;28;20526;-80
2023/06/25 03:33:25;;;;;;;59.77;35.53;;;23.80;74.90;;;;;;5060776;28;20468;-80
2023/06/25 03:35:54;;;;;;;56.17;34.20;;;23.80;75.30;;;;;;5068280;28;20461;-79
2023/06/25 03:38:22;;;;;;;60.20;35.37;;;23.90;75.10;;;;;;5064778;28;20474;-80
2023/06/25 03:40:50;;;;;;;57.90;35.47;;;23.80;76.10;;;;;;5061571;28;20530;-79
2023/06/25 03:43:20;;;;;;;61.07;35.10;;;23.80;76.60;;;;;;5063159;28;20481;-80
2023/06/25 03:45:48;;;;;;;61.07;37.13;;;23.80;75.80;;;;;;5052316;28;20504;-79
2023/06/25 03:48:16;;;;;;;63.30;36.33;;;23.80;76.50;;;;;;5064259;28;20478;-80
2023/06/25 03:50:45;;;;;;;62.47;37.40;;;24.00;76.60;;;;;;5074687;28;20549;-80
2023/06/25 03:53:13;;;;;;;71.73;37.40;;;24.00;76.70;;;;;;5059587;28;20509;-80
2023/06/25 03:55:41;;;;;;;63.87;37.00;;;24.00;76.80;;;;;;5065428;28;20462;-80
2023/06/25 03:58:10;;;;;;;63.07;38.43;;;24.10;76.60;;;;;;5066103;28;20451;-80
2023/06/25 04:00:39;;;;;;;64.40;37.57;;;24.10;77.10;;;;;;5045997;28;20424;-80
2023/06/25 04:03:07;;;;;;;57.53;35.23;;;24.10;76.50;;;;;;5048551;28;20447;-80
2023/06/25 04:05:35;;;;;;;63.17;36.63;;;24.10;76.90;;;;;;5072196;28;20528;-79
2023/06/25 04:08:04;;;;;;;59.50;34.60;;;24.00;77.30;;;;;;5062473;28;20447;-80
2023/06/25 04:10:33;;;;;;;56.13;33.43;;;24.10;77.00;;;;;;5053919;28;20455;-80
2023/06/25 04:13:01;;;;;;;54.43;33.70;;;24.10;77.30;;;;;;5069464;28;20496;-80
2023/06/25 04:15:29;;;;;;;54.93;31.47;;;24.10;78.10;;;;;;5066809;28;20493;-81
2023/06/25 04:17:58;;;;;;;57.53;31.60;;;24.00;78.00;;;;;;5066090;28;20451;-80
2023/06/25 04:20:27;;;;;;;50.23;31.77;;;24.10;77.60;;;;;;5047215;28;20944;-80
2023/06/25 04:22:55;;;;;;;61.97;33.10;;;24.20;77.90;;;;;;5062111;28;20435;-79
2023/06/25 04:25:24;;;;;;;49.40;29.13;;;24.20;78.10;;;;;;5069508;28;20486;-80
2023/06/25 04:27:52;;;;;;;47.90;28.30;;;24.30;77.80;;;;;;5061869;28;20505;-80
2023/06/25 04:30:20;;;;;;;45.17;27.87;;;24.30;77.10;;;;;;5057223;28;20432;-81
2023/06/25 04:32:49;;;;;;;45.53;26.97;;;24.40;77.00;;;;;;5060333;28;20487;-80
2023/06/25 04:35:19;;;;;;;39.70;25.60;;;24.30;76.60;;;;;;5067281;28;20552;-80
2023/06/25 04:37:47;;;;;;;37.27;23.90;;;24.40;76.20;;;;;;5053633;28;20447;-79
2023/06/25 04:40:16;;;;;;;34.63;22.30;;;24.40;76.30;;;;;;5068635;28;20563;-80
2023/06/25 04:42:44;;;;;;;43.17;28.47;;;24.30;76.40;;;;;;5066716;28;20408;-79
2023/06/25 04:45:12;;;;;;;63.43;40.37;;;24.50;75.60;;;;;;5063768;28;20467;-79
2023/06/25 04:47:40;;;;;;;35.80;23.23;;;24.60;73.90;;;;;;5062064;28;20443;-80
2023/06/25 04:50:09;;;;;;;33.20;22.07;;;24.60;73.40;;;;;;5067636;28;20457;-79
2023/06/25 04:52:39;;;;;;;28.90;18.87;;;24.70;72.60;;;;;;5071362;28;20424;-79
2023/06/25 04:55:08;;;;;;;31.07;20.10;;;24.70;72.40;;;;;;5058238;28;20481;-79
2023/06/25 04:57:36;;;;;;;28.37;18.10;;;24.70;72.10;;;;;;5051167;28;20833;-79
2023/06/25 05:00:05;;;;;;;24.00;16.30;;;24.80;71.60;;;;;;5061835;28;20400;-79
2023/06/25 05:02:32;;;;;;;21.43;15.63;;;24.70;70.30;;;;;;5059233;28;20450;-79
2023/06/25 05:05:03;;;;;;;22.93;14.80;;;24.60;70.50;;;;;;5054394;28;20643;-80
2023/06/25 05:07:30;;;;;;;22.47;14.70;;;24.60;70.20;;;;;;5057500;28;20926;-80
2023/06/25 05:10:00;;;;;;;17.73;12.00;;;24.80;68.70;;;;;;5054166;28;20509;-80
2023/06/25 05:12:28;;;;;;;19.10;12.87;;;24.80;68.90;;;;;;5060679;28;20472;-80
2023/06/25 05:14:56;;;;;;;15.33;11.53;;;25.00;68.20;;;;;;5057847;28;20497;-80
2023/06/25 05:17:24;;;;;;;15.40;11.47;;;25.00;66.90;;;;;;5072330;28;20506;-80
2023/06/25 05:19:52;;;;;;;15.43;10.73;;;25.00;67.20;;;;;;5065316;28;20439;-80
2023/06/25 05:22:20;;;;;;;14.50;10.67;;;25.20;66.90;;;;;;5064118;28;20441;-80
2023/06/25 05:24:48;;;;;;;17.40;10.20;;;25.20;66.10;;;;;;5059989;28;20461;-79
2023/06/25 05:27:17;;;;;;;12.70;10.10;;;25.20;66.00;;;;;;5063406;28;20499;-79
2023/06/25 05:29:45;;;;;;;12.03;9.47;;;25.30;65.30;;;;;;5048553;28;20478;-80
2023/06/25 05:32:15;;;;;;;13.70;10.27;;;25.40;65.50;;;;;;5058695;28;20444;-80
2023/06/25 05:34:43;;;;;;;13.70;10.63;;;25.50;64.30;;;;;;5065028;28;20953;-80
2023/06/25 05:37:11;;;;;;;17.47;12.40;;;25.50;64.40;;;;;;5059254;28;20717;-80
2023/06/25 05:39:39;;;;;;;15.97;11.87;;;25.40;63.10;;;;;;5051149;28;20452;-83
2023/06/25 05:42:08;;;;;;;22.50;11.47;;;25.40;62.50;;;;;;5072035;28;20415;-80
2023/06/25 05:44:37;;;;;;;12.90;10.17;;;25.40;62.20;;;;;;5074345;28;20493;-80
2023/06/25 05:47:06;;;;;;;16.63;11.50;;;25.60;62.40;;;;;;5043192;28;20461;-79
2023/06/25 05:49:34;;;;;;;15.23;10.97;;;25.60;61.70;;;;;;5062663;28;20442;-79
2023/06/25 05:52:02;;;;;;;16.30;11.47;;;25.60;61.90;;;;;;5036762;28;20473;-80
2023/06/25 05:54:30;;;;;;;19.93;11.70;;;25.70;61.70;;;;;;5046801;28;20501;-80
2023/06/25 05:56:58;;;;;;;15.93;11.80;;;25.70;61.20;;;;;;5057431;28;20433;-80
2023/06/25 05:59:25;;;;;;;15.97;11.90;;;25.70;61.60;;;;;;5067491;28;20441;-80
2023/06/25 06:01:55;;;;;;;22.53;15.67;;;25.80;61.10;;;;;;5061373;28;20401;-80
2023/06/25 06:04:23;;;;;;;14.37;11.67;;;25.80;61.60;;;;;;5064606;28;20436;-80
2023/06/25 06:06:50;;;;;;;16.47;10.90;;;25.90;61.90;;;;;;5052714;28;20417;-79
2023/06/25 06:09:19;;;;;;;20.30;10.60;;;25.90;62.60;;;;;;5054919;28;20417;-79
2023/06/25 06:11:47;;;;;;;16.17;10.70;;;26.00;62.80;;;;;;5047512;28;20442;-79
2023/06/25 06:14:14;;;;;;;16.60;12.53;;;26.20;61.80;;;;;;5062280;28;20453;-80
2023/06/25 06:16:43;;;;;;;17.10;10.90;;;26.20;61.70;;;;;;5060878;28;20425;-80
2023/06/25 06:19:12;;;;;;;17.87;11.50;;;26.20;61.90;;;;;;5054702;28;20501;-79
2023/06/25 06:21:40;;;;;;;14.50;10.90;;;26.30;61.60;;;;;;5063394;28;20481;-79
2023/06/25 06:24:08;;;;;;;14.97;10.30;;;26.40;61.10;;;;;;5057869;28;20447;-79
2023/06/25 06:26:36;;;;;;;12.60;10.63;;;26.50;61.20;;;;;;5056801;28;20464;-79
2023/06/25 06:29:04;;;;;;;16.43;10.40;;;26.60;60.90;;;;;;5058044;28;20453;-80
2023/06/25 06:31:33;;;;;;;14.07;10.40;;;26.60;60.80;;;;;;5064569;28;20485;-80
2023/06/25 06:34:01;;;;;;;12.10;9.40;;;26.70;60.50;;;;;;5057957;28;20484;-80
2023/06/25 06:36:30;;;;;;;18.00;12.20;;;26.80;60.30;;;;;;5051466;28;20421;-80
2023/06/25 06:38:58;;;;;;;18.30;10.13;;;26.80;60.40;;;;;;5064373;28;20959;-80
2023/06/25 06:41:26;;;;;;;14.27;11.13;;;26.90;60.70;;;;;;5060810;28;20469;-79
2023/06/25 06:43:54;;;;;;;13.50;9.83;;;27.00;61.00;;;;;;5044308;28;20528;-81
2023/06/25 06:46:22;;;;;;;13.03;10.73;;;27.00;60.90;;;;;;5034966;28;20543;-81
2023/06/25 06:48:51;;;;;;;15.97;12.07;;;27.00;60.70;;;;;;5044011;28;20421;-81
2023/06/25 06:51:19;;;;;;;13.50;10.23;;;27.00;60.40;;;;;;5048091;28;20452;-81
2023/06/25 06:53:48;;;;;;;12.80;9.90;;;26.90;61.60;;;;;;5036177;28;20868;-79
2023/06/25 06:56:16;;;;;;;25.80;16.60;;;26.80;61.70;;;;;;5044174;28;20425;-80
2023/06/25 06:58:44;;;;;;;13.70;11.00;;;26.90;61.60;;;;;;5041124;28;20895;-79
2023/06/25 07:01:13;;;;;;;17.10;11.07;;;27.00;61.30;;;;;;5046306;28;20457;-80
2023/06/25 07:03:41;;;;;;;12.47;10.43;;;26.90;61.90;;;;;;5054249;28;20466;-80
2023/06/25 07:06:09;;;;;;;13.27;9.93;;;27.00;62.50;;;;;;5051667;28;20440;-80
2023/06/25 07:08:38;;;;;;;15.63;10.27;;;27.20;62.20;;;;;;5048285;28;20518;-80
2023/06/25 07:11:07;;;;;;;13.60;9.87;;;27.40;61.50;;;;;;5047587;28;20519;-80
2023/06/25 07:13:35;;;;;;;18.13;8.70;;;27.50;61.40;;;;;;5043074;28;20418;-81
2023/06/25 07:16:03;;;;;;;13.37;8.80;;;27.60;60.80;;;;;;5059316;28;20476;-81
2023/06/25 07:18:31;;;;;;;23.83;10.00;;;27.60;60.50;;;;;;5059944;28;20444;-80
2023/06/25 07:20:59;;;;;;;15.93;9.60;;;27.70;60.60;;;;;;5064254;28;20516;-80
2023/06/25 07:23:27;;;;;;;18.30;11.73;;;27.70;60.60;;;;;;5066114;28;20442;-81
2023/06/25 07:25:56;;;;;;;17.67;12.87;;;27.70;61.90;;;;;;5052093;28;20455;-80
2023/06/25 07:28:25;;;;;;;20.37;12.97;;;27.70;61.30;;;;;;5057555;28;20473;-80
2023/06/25 07:30:54;;;;;;;20.73;16.60;;;27.90;60.50;;;;;;5061433;28;20451;-81
2023/06/25 07:33:22;;;;;;;26.47;11.30;;;28.10;61.30;;;;;;5067882;28;20424;-80
2023/06/25 07:35:50;;;;;;;21.77;12.87;;;28.10;59.90;;;;;;5057584;28;20899;-80
2023/06/25 07:38:18;;;;;;;16.33;12.67;;;28.00;60.60;;;;;;5067894;28;20499;-81
2023/06/25 07:40:46;;;;;;;15.23;12.10;;;28.00;61.00;;;;;;5063366;28;20441;-80
2023/06/25 07:43:14;;;;;;;18.70;12.73;;;27.80;61.60;;;;;;5064988;28;20534;-82
2023/06/25 07:45:44;;;;;;;13.23;11.10;;;27.90;61.90;;;;;;5040176;28;20502;-80
2023/06/25 07:48:12;;;;;;;17.90;12.77;;;27.90;61.50;;;;;;5046503;28;20406;-80
2023/06/25 07:50:40;;;;;;;18.50;11.57;;;27.60;61.00;;;;;;5055864;28;20474;-80
2023/06/25 07:53:09;;;;;;;17.90;8.40;;;27.70;61.90;;;;;;5044608;28;20456;-82
2023/06/25 07:55:40;;;;;;;19.57;7.90;;;28.20;61.50;;;;;;5051163;28;20554;-81
2023/06/25 07:58:28;;;;;;;11.47;8.70;;;28.60;60.00;;;;;;5052236;28;20458;-83
2023/06/25 08:00:57;;;;;;;13.10;8.40;;;29.00;59.00;;;;;;5061785;28;20484;-83
2023/06/25 08:03:26;;;;;;;18.83;13.23;;;29.10;58.30;;;;;;5057000;28;20483;-81
2023/06/25 08:05:54;;;;;;;10.90;9.73;;;29.30;57.80;;;;;;5058306;28;20442;-83
2023/06/25 08:08:22;;;;;;;15.07;9.40;;;29.50;57.20;;;;;;5060555;28;20899;-81
2023/06/25 08:10:51;;;;;;;9.30;7.90;;;29.60;56.70;;;;;;5058428;28;20530;-81
2023/06/25 08:13:20;;;;;;;13.27;8.63;;;29.70;56.30;;;;;;5058374;28;20446;-82
2023/06/25 08:15:48;;;;;;;9.57;8.60;;;29.80;56.20;;;;;;5035313;28;20502;-83
2023/06/25 08:18:18;;;;;;;11.53;7.53;;;29.90;55.80;;;;;;5051440;28;20512;-82
2023/06/25 08:20:46;;;;;;;8.80;7.50;;;30.00;55.50;;;;;;5055626;28;20496;-83
2023/06/25 08:23:15;;;;;;;10.40;7.83;;;30.10;55.40;;;;;;5057523;28;20454;-83
2023/06/25 08:25:43;;;;;;;8.67;7.77;;;30.20;55.20;;;;;;5056149;28;20462;-84
2023/06/25 08:28:12;;;;;;;9.57;6.97;;;30.30;55.00;;;;;;5049370;28;20450;-81
2023/06/25 08:30:50;;;;;;;8.10;7.33;;;30.30;54.80;;;;;;5050840;28;20466;-83
2023/06/25 08:33:20;;;;;;;9.23;7.10;;;30.50;54.80;;;;;;5062554;28;20497;-83
2023/06/25 08:35:49;;;;;;;9.17;6.70;;;30.50;54.30;;;;;;5047262;28;20503;-81
2023/06/25 08:38:19;;;;;;;8.20;7.43;;;30.60;53.90;;;;;;5069348;28;20446;-83
2023/06/25 08:40:47;;;;;;;12.33;7.43;;;30.70;53.80;;;;;;5056704;28;20501;-83
2023/06/25 08:43:16;;;;;;;7.87;7.23;;;30.70;53.70;;;;;;5062521;28;20420;-82
2023/06/25 08:45:44;;;;;;;8.27;7.47;;;30.80;53.30;;;;;;5057489;28;20454;-83
2023/06/25 08:48:13;;;;;;;7.27;6.67;;;30.90;53.00;;;;;;5045385;28;20508;-84
2023/06/25 08:50:44;;;;;;;8.13;7.43;;;31.00;52.80;;;;;;5056745;28;20481;-82
2023/06/25 08:53:12;;;;;;;6.70;6.10;;;31.10;52.40;;;;;;5063252;28;20438;-83
2023/06/25 08:55:41;;;;;;;7.37;6.67;;;31.20;52.30;;;;;;5056282;28;20546;-82
2023/06/25 08:58:09;;;;;;;9.40;6.70;;;31.20;52.20;;;;;;5058626;28;20450;-83
2023/06/25 09:00:37;;;;;;;6.80;6.13;;;31.30;51.90;;;;;;5048409;28;20474;-84
2023/06/25 09:03:06;;;;;;;11.70;6.53;;;31.30;51.80;;;;;;5061680;28;20442;-81
2023/06/25 09:05:54;;;;;;;7.30;6.70;;;31.40;51.60;;;;;;5051603;28;20521;-82
2023/06/25 09:08:22;;;;;;;7.83;7.13;;;31.50;51.00;;;;;;5062016;28;20955;-82
2023/06/25 09:10:51;;;;;;;7.03;6.47;;;31.60;50.60;;;;;;5059044;28;20476;-82
2023/06/25 09:13:23;;;;;;;8.23;7.37;;;31.60;50.30;;;;;;5060724;28;20438;-83
2023/06/25 09:15:53;;;;;;;7.60;7.00;;;31.80;49.90;;;;;;5054957;28;20520;-83
2023/06/25 09:18:22;;;;;;;6.93;6.33;;;31.80;49.70;;;;;;5055654;28;20475;-84
2023/06/25 09:20:50;;;;;;;10.10;9.10;;;31.80;49.60;;;;;;5056211;28;20450;-81
2023/06/25 09:23:26;;;;;;;8.87;8.07;;;31.90;49.60;;;;;;5049128;28;20452;-82
2023/06/25 09:25:55;;;;;;;9.33;8.37;;;32.00;48.80;;;;;;5050667;28;20529;-83
2023/06/25 09:28:24;;;;;;;10.70;9.57;;;32.00;48.20;;;;;;5055392;28;20481;-82
2023/06/25 09:30:56;;;;;;;8.53;7.47;;;32.00;48.20;;;;;;5049828;28;20504;-83
2023/06/25 09:33:30;;;;;;;8.30;7.60;;;32.10;47.60;;;;;;5060639;28;20465;-83
2023/06/25 09:36:03;;;;;;;7.03;6.43;;;32.20;47.50;;;;;;5049475;28;20466;-83
2023/06/25 09:38:45;;;;;;;7.47;6.87;;;32.30;46.40;;;;;;5063008;28;20446;-82
2023/06/25 09:41:15;;;;;;;7.50;6.80;;;32.30;45.80;;;;;;5051891;28;20516;-82
2023/06/25 09:43:43;;;;;;;7.40;6.70;;;32.30;45.30;;;;;;5055473;28;20466;-83
2023/06/25 09:46:11;;;;;;;6.87;6.37;;;32.40;45.80;;;;;;5056693;28;20848;-83
2023/06/25 09:48:40;;;;;;;7.67;6.87;;;32.40;45.90;;;;;;5066546;28;20446;-82
2023/06/25 09:51:08;;;;;;;8.87;6.73;;;32.50;45.40;;;;;;5066733;28;20500;-80
2023/06/25 09:53:38;;;;;;;7.20;6.50;;;32.60;45.20;;;;;;5060356;28;20438;-82
2023/06/25 09:56:08;;;;;;;6.60;6.20;;;32.70;44.80;;;;;;5048680;28;20471;-81
2023/06/25 09:58:36;;;;;;;6.97;6.37;;;32.80;44.20;;;;;;5054292;28;20447;-79
2023/06/25 10:01:04;;;;;;;9.80;6.90;;;32.80;44.40;;;;;;5055185;28;20562;-78
2023/06/25 10:03:34;;;;;;;6.40;6.00;;;32.90;44.20;;;;;;5065118;28;20499;-80
2023/06/25 10:06:02;;;;;;;7.77;6.97;;;32.90;44.30;;;;;;5059706;28;20452;-81
2023/06/25 10:08:31;;;;;;;7.40;6.70;;;33.00;44.30;;;;;;5052758;28;20500;-80
2023/06/25 10:10:59;;;;;;;6.77;6.27;;;33.10;44.00;;;;;;5052313;28;20442;-81
2023/06/25 10:13:31;;;;;;;7.33;6.80;;;33.10;43.70;;;;;;5048971;28;20463;-81
2023/06/25 10:16:00;;;;;;;7.43;6.80;;;33.10;43.20;;;;;;5048848;28;20493;-81
2023/06/25 10:18:28;;;;;;;6.83;6.33;;;33.10;43.60;;;;;;5056447;28;20438;-82
2023/06/25 10:20:57;;;;;;;7.67;6.97;;;33.20;43.60;;;;;;5055726;28;20447;-82
2023/06/25 10:23:26;;;;;;;6.93;6.43;;;33.20;43.50;;;;;;5051556;28;20450;-81
2023/06/25 10:25:57;;;;;;;7.40;6.70;;;33.30;43.30;;;;;;5058833;28;20446;-82
2023/06/25 10:28:31;;;;;;;6.40;5.90;;;33.20;43.00;;;;;;5054805;28;20946;-82
2023/06/25 10:31:11;;;;;;;8.20;7.17;;;33.30;43.30;;;;;;5049358;28;20438;-81
2023/06/25 10:33:39;;;;;;;10.50;6.20;;;33.40;43.40;;;;;;5064227;28;20446;-81
2023/06/25 10:36:09;;;;;;;6.67;6.03;;;33.40;43.50;;;;;;5056142;28;20471;-81
2023/06/25 10:38:37;;;;;;;7.40;6.80;;;33.50;43.20;;;;;;5054294;28;20454;-81
2023/06/25 10:41:06;;;;;;;7.03;6.40;;;33.60;43.30;;;;;;5058387;28;20445;-79
2023/06/25 10:43:37;;;;;;;7.33;6.63;;;33.70;43.10;;;;;;5066054;28;20456;-80
2023/06/25 10:46:05;;;;;;;7.30;6.60;;;33.70;42.60;;;;;;5049118;28;20438;-80
2023/06/25 10:48:34;;;;;;;7.70;6.20;;;33.80;42.30;;;;;;5047025;28;20446;-79
2023/06/25 10:51:02;;;;;;;6.80;6.33;;;33.80;42.00;;;;;;5057871;28;20450;-80
2023/06/25 10:53:31;;;;;;;7.13;6.53;;;33.80;41.60;;;;;;5055019;28;20549;-81
2023/06/25 10:55:59;;;;;;;6.30;5.80;;;33.90;41.20;;;;;;5058048;28;20493;-81
2023/06/25 10:58:27;;;;;;;6.83;6.23;;;33.80;41.00;;;;;;5056736;28;20442;-80
2023/06/25 11:00:57;;;;;;;6.53;5.93;;;33.80;41.20;;;;;;5046143;28;20459;-79
2023/06/25 11:03:26;;;;;;;6.27;5.87;;;33.90;41.10;;;;;;5063774;28;20457;-81
2023/06/25 11:05:57;;;;;;;6.63;6.20;;;34.00;40.40;;;;;;5077318;28;20438;-80
2023/06/25 11:08:25;;;;;;;6.90;5.93;;;34.10;40.10;;;;;;5063800;28;20466;-81
2023/06/25 11:10:54;;;;;;;6.10;5.70;;;34.20;40.00;;;;;;5067322;28;20520;-81
2023/06/25 11:13:22;;;;;;;6.30;5.80;;;34.20;40.00;;;;;;5060255;28;20529;-81
2023/06/25 11:15:51;;;;;;;5.43;5.13;;;34.30;40.20;;;;;;5060552;28;20446;-80
2023/06/25 11:18:21;;;;;;;6.03;5.53;;;34.30;40.10;;;;;;5053828;28;20505;-81
2023/06/25 11:20:50;;;;;;;6.30;5.80;;;34.30;39.80;;;;;;5068963;28;20430;-82
2023/06/25 11:23:18;;;;;;;6.60;6.10;;;34.20;39.80;;;;;;5063324;28;20437;-82
2023/06/25 11:25:46;;;;;;;6.83;5.63;;;34.30;39.80;;;;;;5064538;28;20466;-83
2023/06/25 11:28:15;;;;;;;8.43;6.07;;;34.30;39.70;;;;;;5062670;28;20496;-82
2023/06/25 11:30:44;;;;;;;5.70;5.30;;;34.40;39.70;;;;;;5062865;28;20442;-83
2023/06/25 11:33:16;;;;;;;6.47;5.97;;;34.50;39.50;;;;;;5067213;28;20456;-83
2023/06/25 11:35:50;;;;;;;6.63;6.03;;;34.60;39.30;;;;;;5064798;28;20507;-82
2023/06/25 11:38:33;;;;;;;6.47;5.97;;;34.70;38.70;;;;;;5055946;28;20537;-83
2023/06/25 11:41:01;;;;;;;6.57;5.97;;;34.80;38.60;;;;;;5070840;28;20454;-80
2023/06/25 11:43:29;;;;;;;6.93;6.40;;;34.90;38.80;;;;;;5055303;28;20439;-81
2023/06/25 11:46:00;;;;;;;6.33;5.83;;;34.90;39.20;;;;;;5060886;28;20461;-80
2023/06/25 11:48:28;;;;;;;6.60;6.10;;;34.90;38.90;;;;;;5066785;28;20430;-81
2023/06/25 11:51:04;;;;;;;6.57;5.97;;;34.90;38.90;;;;;;5050927;28;20500;-81
2023/06/25 11:53:33;;;;;;;6.60;6.13;;;35.00;38.90;;;;;;5056194;28;20493;-80
2023/06/25 11:56:01;;;;;;;6.40;5.93;;;35.10;38.80;;;;;;5059325;28;20932;-80
2023/06/25 11:58:30;;;;;;;6.73;5.80;;;35.10;38.80;;;;;;5049955;28;20468;-82
2023/06/25 12:00:58;;;;;;;5.70;5.40;;;35.20;38.70;;;;;;5057921;28;20454;-81
2023/06/25 12:03:26;;;;;;;6.80;6.30;;;35.30;38.60;;;;;;5051535;28;20490;-83
2023/06/25 12:05:57;;;;;;;5.77;5.40;;;35.30;38.60;;;;;;5052075;28;20473;-84
2023/06/25 12:08:28;;;;;;;6.93;6.33;;;35.30;38.50;;;;;;5060119;28;20462;-82
2023/06/25 12:11:00;;;;;;;6.10;5.60;;;35.50;37.90;;;;;;5063638;28;21152;-81
2023/06/25 12:13:38;;;;;;;5.93;5.43;;;35.50;37.90;;;;;;5071838;28;20454;-82
2023/06/25 12:16:09;;;;;;;6.37;5.77;;;35.60;37.40;;;;;;5057666;28;20478;-82
2023/06/25 12:18:46;;;;;;;5.53;5.23;;;35.70;36.90;;;;;;5071426;28;20470;-81
2023/06/25 12:21:15;;;;;;;6.20;5.37;;;35.80;36.50;;;;;;5068808;28;20454;-81
2023/06/25 12:23:44;;;;;;;5.83;5.33;;;35.80;36.40;;;;;;5064442;28;20481;-81
2023/06/25 12:26:20;;;;;;;5.60;5.20;;;35.80;36.40;;;;;;5050172;28;21002;-81
2023/06/25 12:28:49;;;;;;;5.67;5.27;;;35.80;36.70;;;;;;5059167;28;20453;-82
2023/06/25 12:31:18;;;;;;;5.90;5.50;;;35.70;36.50;;;;;;5057602;28;20442;-82
2023/06/25 12:33:52;;;;;;;5.97;5.47;;;35.70;37.00;;;;;;5062891;28;20492;-82
2023/06/25 12:36:23;;;;;;;5.77;5.27;;;35.70;37.00;;;;;;5059805;28;20441;-81
2023/06/25 12:38:57;;;;;;;6.57;5.30;;;35.70;36.90;;;;;;5061915;28;20557;-81
2023/06/25 12:41:32;;;;;;;5.97;5.50;;;35.70;37.10;;;;;;5061658;28;20555;-81